sensor_id;sensor_type;location;lat;lon;timestamp;temperature;humidity
58865;DHT22;45702;52.982;6.658;2023-07-13T00:00:19;16.30;99.90
58865;DHT22;45702;52.982;6.658;2023-07-13T00:02:46;16.30;99.90
58865;DHT22;45702;52.982;6.658;2023-07-13T00:05:11;16.20;99.90
58865;DHT22;45702;52.982;6.658;2023-07-13T00:07:37;16.20;99.90
58865;DHT22;45702;52.982;6.658;2023-07-13T00:10:04;16.20;99.90
58865;DHT22;45702;52.982;6.658;2023-07-13T00:12:32;16.20;99.90
58865;DHT22;45702;52.982;6.658;2023-07-13T00:15:00;16.20;99.90
58865;DHT22;45702;52.982;6.658;2023-07-13T00:17:27;16.20;99.90
58865;DHT22;45702;52.982;6.658;2023-07-13T00:19:53;16.20;99.90
58865;DHT22;45702;52.982;6.658;2023-07-13T00:22:19;16.20;99.90
58865;DHT22;45702;52.982;6.658;2023-07-13T00:24:45;16.20;99.90
58865;DHT22;45702;52.982;6.658;2023-07-13T00:27:11;16.20;99.90
58865;DHT22;45702;52.982;6.658;2023-07-13T00:29:37;16.20;99.90
58865;DHT22;45702;52.982;6.658;2023-07-13T00:32:05;16.20;99.90
58865;DHT22;45702;52.982;6.658;2023-07-13T00:34:31;16.20;99.90
58865;DHT22;45702;52.982;6.658;2023-07-13T00:36:57;16.30;99.90
58865;DHT22;45702;52.982;6.658;2023-07-13T00:39:23;16.30;99.90
58865;DHT22;45702;52.982;6.658;2023-07-13T00:41:50;16.30;99.90
58865;DHT22;45702;52.982;6.658;2023-07-13T00:44:17;16.30;99.90
58865;DHT22;45702;52.982;6.658;2023-07-13T00:46:43;16.40;99.90
58865;DHT22;45702;52.982;6.658;2023-07-13T00:49:12;16.30;99.90
58865;DHT22;45702;52.982;6.658;2023-07-13T00:54:19;16.40;99.90
58865;DHT22;45702;52.982;6.658;2023-07-13T00:56:49;16.40;99.90
58865;DHT22;45702;52.982;6.658;2023-07-13T00:59:17;16.40;99.90
58865;DHT22;45702;52.982;6.658;2023-07-13T01:01:44;16.40;99.90
58865;DHT22;45702;52.982;6.658;2023-07-13T01:04:10;16.40;99.90
58865;DHT22;45702;52.982;6.658;2023-07-13T01:06:37;16.40;99.90
58865;DHT22;45702;52.982;6.658;2023-07-13T01:09:04;16.50;99.90
58865;DHT22;45702;52.982;6.658;2023-07-13T01:11:30;16.40;99.90
58865;DHT22;45702;52.982;6.658;2023-07-13T01:13:56;16.40;99.90
58865;DHT22;45702;52.982;6.658;2023-07-13T01:16:27;16.40;99.90
58865;DHT22;45702;52.982;6.658;2023-07-13T01:18:55;16.40;99.90
58865;DHT22;45702;52.982;6.658;2023-07-13T01:21:24;16.40;99.90
58865;DHT22;45702;52.982;6.658;2023-07-13T01:23:50;16.50;99.90
58865;DHT22;45702;52.982;6.658;2023-07-13T01:26:16;16.40;99.90
58865;DHT22;45702;52.982;6.658;2023-07-13T01:28:41;16.40;99.90
58865;DHT22;45702;52.982;6.658;2023-07-13T01:31:08;16.40;99.90
58865;DHT22;45702;52.982;6.658;2023-07-13T01:33:37;16.40;99.90
58865;DHT22;45702;52.982;6.658;2023-07-13T01:36:06;16.40;99.90
58865;DHT22;45702;52.982;6.658;2023-07-13T01:38:33;16.40;99.90
58865;DHT22;45702;52.982;6.658;2023-07-13T01:40:59;16.40;99.90
58865;DHT22;45702;52.982;6.658;2023-07-13T01:43:25;16.40;99.90
58865;DHT22;45702;52.982;6.658;2023-07-13T01:45:51;16.30;99.90
58865;DHT22;45702;52.982;6.658;2023-07-13T01:48:17;16.30;99.90
58865;DHT22;45702;52.982;6.658;2023-07-13T01:50:43;16.30;99.90
58865;DHT22;45702;52.982;6.658;2023-07-13T01:53:08;16.30;99.90
58865;DHT22;45702;52.982;6.658;2023-07-13T01:55:35;16.30;99.90
58865;DHT22;45702;52.982;6.658;2023-07-13T01:58:01;16.30;99.90
58865;DHT22;45702;52.982;6.658;2023-07-13T02:00:28;16.30;99.90
58865;DHT22;45702;52.982;6.658;2023-07-13T02:02:53;16.30;99.90
58865;DHT22;45702;52.982;6.658;2023-07-13T02:05:19;16.30;99.90
58865;DHT22;45702;52.982;6.658;2023-07-13T02:07:45;16.20;99.90
58865;DHT22;45702;52.982;6.658;2023-07-13T02:10:11;16.30;99.90
58865;DHT22;45702;52.982;6.658;2023-07-13T02:12:38;16.30;99.90
58865;DHT22;45702;52.982;6.658;2023-07-13T02:15:04;16.20;99.90
58865;DHT22;45702;52.982;6.658;2023-07-13T02:17:30;16.20;99.90
58865;DHT22;45702;52.982;6.658;2023-07-13T02:19:56;16.20;99.90
58865;DHT22;45702;52.982;6.658;2023-07-13T02:22:22;16.20;99.90
58865;DHT22;45702;52.982;6.658;2023-07-13T02:24:49;16.20;99.90
58865;DHT22;45702;52.982;6.658;2023-07-13T02:27:15;16.20;99.90
58865;DHT22;45702;52.982;6.658;2023-07-13T02:29:40;16.20;99.90
58865;DHT22;45702;52.982;6.658;2023-07-13T02:32:07;16.20;99.90
58865;DHT22;45702;52.982;6.658;2023-07-13T02:34:33;16.20;99.90
58865;DHT22;45702;52.982;6.658;2023-07-13T02:36:59;16.10;99.90
58865;DHT22;45702;52.982;6.658;2023-07-13T02:39:24;16.10;99.90
58865;DHT22;45702;52.982;6.658;2023-07-13T02:41:50;16.10;99.90
58865;DHT22;45702;52.982;6.658;2023-07-13T02:44:16;16.10;99.90
58865;DHT22;45702;52.982;6.658;2023-07-13T02:46:42;16.00;99.90
58865;DHT22;45702;52.982;6.658;2023-07-13T02:49:08;16.10;99.90
58865;DHT22;45702;52.982;6.658;2023-07-13T02:51:33;16.00;99.90
58865;DHT22;45702;52.982;6.658;2023-07-13T02:54:01;16.00;99.90
58865;DHT22;45702;52.982;6.658;2023-07-13T02:56:28;16.00;99.90
58865;DHT22;45702;52.982;6.658;2023-07-13T02:58:54;15.90;99.90
58865;DHT22;45702;52.982;6.658;2023-07-13T03:01:21;15.90;99.90
58865;DHT22;45702;52.982;6.658;2023-07-13T03:03:48;15.90;99.90
58865;DHT22;45702;52.982;6.658;2023-07-13T03:06:15;15.80;99.90
58865;DHT22;45702;52.982;6.658;2023-07-13T03:08:42;15.80;99.90
58865;DHT22;45702;52.982;6.658;2023-07-13T03:11:09;15.80;99.90
58865;DHT22;45702;52.982;6.658;2023-07-13T03:13:40;15.80;99.90
58865;DHT22;45702;52.982;6.658;2023-07-13T03:16:06;15.80;99.90
58865;DHT22;45702;52.982;6.658;2023-07-13T03:18:32;15.80;99.90
58865;DHT22;45702;52.982;6.658;2023-07-13T03:20:58;15.70;99.90
58865;DHT22;45702;52.982;6.658;2023-07-13T03:23:24;15.80;99.90
58865;DHT22;45702;52.982;6.658;2023-07-13T03:26:00;15.70;99.90
58865;DHT22;45702;52.982;6.658;2023-07-13T03:28:26;15.70;99.90
58865;DHT22;45702;52.982;6.658;2023-07-13T03:31:02;15.70;99.90
58865;DHT22;45702;52.982;6.658;2023-07-13T03:33:29;15.70;99.90
58865;DHT22;45702;52.982;6.658;2023-07-13T03:35:55;15.70;99.90
58865;DHT22;45702;52.982;6.658;2023-07-13T03:38:21;15.70;99.90
58865;DHT22;45702;52.982;6.658;2023-07-13T03:40:47;15.70;99.90
58865;DHT22;45702;52.982;6.658;2023-07-13T03:43:13;15.70;99.90
58865;DHT22;45702;52.982;6.658;2023-07-13T03:45:39;15.70;99.90
58865;DHT22;45702;52.982;6.658;2023-07-13T03:48:05;15.70;99.90
58865;DHT22;45702;52.982;6.658;2023-07-13T03:50:31;15.70;99.90
58865;DHT22;45702;52.982;6.658;2023-07-13T03:52:58;15.70;99.90
58865;DHT22;45702;52.982;6.658;2023-07-13T03:55:24;15.70;99.90
58865;DHT22;45702;52.982;6.658;2023-07-13T03:57:59;15.70;99.90
58865;DHT22;45702;52.982;6.658;2023-07-13T04:00:25;15.70;99.90
58865;DHT22;45702;52.982;6.658;2023-07-13T04:02:51;15.70;99.90
58865;DHT22;45702;52.982;6.658;2023-07-13T04:05:17;15.70;99.90
58865;DHT22;45702;52.982;6.658;2023-07-13T04:07:43;15.80;99.90
58865;DHT22;45702;52.982;6.658;2023-07-13T04:10:09;15.70;99.90
58865;DHT22;45702;52.982;6.658;2023-07-13T04:12:35;15.70;99.90
58865;DHT22;45702;52.982;6.658;2023-07-13T04:15:01;15.80;99.90
58865;DHT22;45702;52.982;6.658;2023-07-13T04:17:27;15.70;99.90
58865;DHT22;45702;52.982;6.658;2023-07-13T04:19:53;15.80;99.90
58865;DHT22;45702;52.982;6.658;2023-07-13T04:22:19;15.70;99.90
58865;DHT22;45702;52.982;6.658;2023-07-13T04:24:44;15.70;99.90
58865;DHT22;45702;52.982;6.658;2023-07-13T04:27:10;15.80;99.90
58865;DHT22;45702;52.982;6.658;2023-07-13T04:29:36;15.80;99.90
58865;DHT22;45702;52.982;6.658;2023-07-13T04:32:02;15.80;99.90
58865;DHT22;45702;52.982;6.658;2023-07-13T04:34:28;15.80;99.90
58865;DHT22;45702;52.982;6.658;2023-07-13T04:36:53;15.80;99.90
58865;DHT22;45702;52.982;6.658;2023-07-13T04:39:19;15.80;99.90
58865;DHT22;45702;52.982;6.658;2023-07-13T04:41:46;15.80;99.90
58865;DHT22;45702;52.982;6.658;2023-07-13T04:44:11;15.90;99.90
58865;DHT22;45702;52.982;6.658;2023-07-13T04:46:37;15.80;99.90
58865;DHT22;45702;52.982;6.658;2023-07-13T04:49:04;15.80;99.90
58865;DHT22;45702;52.982;6.658;2023-07-13T04:51:29;15.80;99.90
58865;DHT22;45702;52.982;6.658;2023-07-13T04:53:55;15.80;99.90
58865;DHT22;45702;52.982;6.658;2023-07-13T04:56:21;15.90;99.90
58865;DHT22;45702;52.982;6.658;2023-07-13T04:58:47;15.90;99.90
58865;DHT22;45702;52.982;6.658;2023-07-13T05:01:13;15.90;99.90
58865;DHT22;45702;52.982;6.658;2023-07-13T05:03:39;16.00;99.90
58865;DHT22;45702;52.982;6.658;2023-07-13T05:06:07;16.00;99.90
58865;DHT22;45702;52.982;6.658;2023-07-13T05:08:35;16.10;99.90
58865;DHT22;45702;52.982;6.658;2023-07-13T05:11:02;16.10;99.90
58865;DHT22;45702;52.982;6.658;2023-07-13T05:13:29;16.10;99.90
58865;DHT22;45702;52.982;6.658;2023-07-13T05:15:56;16.10;99.90
58865;DHT22;45702;52.982;6.658;2023-07-13T05:18:23;16.10;99.90
58865;DHT22;45702;52.982;6.658;2023-07-13T05:21:02;16.20;99.90
58865;DHT22;45702;52.982;6.658;2023-07-13T05:23:29;16.20;99.90
58865;DHT22;45702;52.982;6.658;2023-07-13T05:25:55;16.20;99.90
58865;DHT22;45702;52.982;6.658;2023-07-13T05:28:22;16.30;99.90
58865;DHT22;45702;52.982;6.658;2023-07-13T05:30:48;16.30;99.90
58865;DHT22;45702;52.982;6.658;2023-07-13T05:33:14;16.30;99.90
58865;DHT22;45702;52.982;6.658;2023-07-13T05:35:40;16.40;99.90
58865;DHT22;45702;52.982;6.658;2023-07-13T05:38:06;16.40;99.90
58865;DHT22;45702;52.982;6.658;2023-07-13T05:40:32;16.40;99.90
58865;DHT22;45702;52.982;6.658;2023-07-13T05:42:58;16.50;99.90
58865;DHT22;45702;52.982;6.658;2023-07-13T05:45:24;16.50;99.90
58865;DHT22;45702;52.982;6.658;2023-07-13T05:47:51;16.50;99.90
58865;DHT22;45702;52.982;6.658;2023-07-13T05:50:17;16.50;99.90
58865;DHT22;45702;52.982;6.658;2023-07-13T05:52:43;16.60;99.90
58865;DHT22;45702;52.982;6.658;2023-07-13T05:55:09;16.60;99.90
58865;DHT22;45702;52.982;6.658;2023-07-13T05:57:35;16.70;99.90
58865;DHT22;45702;52.982;6.658;2023-07-13T06:00:00;16.70;99.90
58865;DHT22;45702;52.982;6.658;2023-07-13T06:02:27;16.70;99.90
58865;DHT22;45702;52.982;6.658;2023-07-13T06:04:53;16.80;99.90
58865;DHT22;45702;52.982;6.658;2023-07-13T06:07:19;16.80;99.90
58865;DHT22;45702;52.982;6.658;2023-07-13T06:09:44;16.90;99.90
58865;DHT22;45702;52.982;6.658;2023-07-13T06:12:10;16.90;99.90
58865;DHT22;45702;52.982;6.658;2023-07-13T06:14:36;16.90;99.90
58865;DHT22;45702;52.982;6.658;2023-07-13T06:17:02;16.90;99.90
58865;DHT22;45702;52.982;6.658;2023-07-13T06:19:28;17.00;99.90
58865;DHT22;45702;52.982;6.658;2023-07-13T06:21:54;17.00;99.90
58865;DHT22;45702;52.982;6.658;2023-07-13T06:24:20;17.10;99.90
58865;DHT22;45702;52.982;6.658;2023-07-13T06:26:46;17.10;99.90
58865;DHT22;45702;52.982;6.658;2023-07-13T06:29:11;17.20;99.90
58865;DHT22;45702;52.982;6.658;2023-07-13T06:31:37;17.20;99.90
58865;DHT22;45702;52.982;6.658;2023-07-13T06:34:03;17.20;99.90
58865;DHT22;45702;52.982;6.658;2023-07-13T06:36:29;17.20;99.90
58865;DHT22;45702;52.982;6.658;2023-07-13T06:38:55;17.30;99.90
58865;DHT22;45702;52.982;6.658;2023-07-13T06:41:20;17.40;99.90
58865;DHT22;45702;52.982;6.658;2023-07-13T06:43:47;17.40;99.90
58865;DHT22;45702;52.982;6.658;2023-07-13T06:46:13;17.50;99.90
58865;DHT22;45702;52.982;6.658;2023-07-13T06:48:39;17.60;99.90
58865;DHT22;45702;52.982;6.658;2023-07-13T06:51:06;17.60;99.90
58865;DHT22;45702;52.982;6.658;2023-07-13T06:53:32;17.70;99.90
58865;DHT22;45702;52.982;6.658;2023-07-13T06:55:57;17.80;99.90
58865;DHT22;45702;52.982;6.658;2023-07-13T06:58:23;17.90;99.90
58865;DHT22;45702;52.982;6.658;2023-07-13T07:00:51;17.90;99.90
58865;DHT22;45702;52.982;6.658;2023-07-13T07:03:17;18.00;99.90
58865;DHT22;45702;52.982;6.658;2023-07-13T07:05:43;18.10;99.90
58865;DHT22;45702;52.982;6.658;2023-07-13T07:08:09;18.10;99.90
58865;DHT22;45702;52.982;6.658;2023-07-13T07:10:35;18.20;99.90
58865;DHT22;45702;52.982;6.658;2023-07-13T07:13:02;18.30;99.90
58865;DHT22;45702;52.982;6.658;2023-07-13T07:15:29;18.40;99.90
58865;DHT22;45702;52.982;6.658;2023-07-13T07:17:54;18.50;99.90
58865;DHT22;45702;52.982;6.658;2023-07-13T07:20:21;18.60;99.90
58865;DHT22;45702;52.982;6.658;2023-07-13T07:22:47;18.70;99.90
58865;DHT22;45702;52.982;6.658;2023-07-13T07:25:13;18.80;99.90
58865;DHT22;45702;52.982;6.658;2023-07-13T07:27:39;18.80;99.90
58865;DHT22;45702;52.982;6.658;2023-07-13T07:30:05;18.90;99.90
58865;DHT22;45702;52.982;6.658;2023-07-13T07:32:32;19.00;99.90
58865;DHT22;45702;52.982;6.658;2023-07-13T07:34:58;19.00;99.90
58865;DHT22;45702;52.982;6.658;2023-07-13T07:37:24;19.00;99.90
58865;DHT22;45702;52.982;6.658;2023-07-13T07:39:50;19.10;99.90
58865;DHT22;45702;52.982;6.658;2023-07-13T07:42:16;19.10;99.90
58865;DHT22;45702;52.982;6.658;2023-07-13T07:44:42;19.20;99.90
58865;DHT22;45702;52.982;6.658;2023-07-13T07:47:08;19.20;99.90
58865;DHT22;45702;52.982;6.658;2023-07-13T07:49:35;19.30;99.90
58865;DHT22;45702;52.982;6.658;2023-07-13T07:52:01;19.30;99.90
58865;DHT22;45702;52.982;6.658;2023-07-13T07:54:27;19.30;99.90
58865;DHT22;45702;52.982;6.658;2023-07-13T07:56:53;19.30;99.90
58865;DHT22;45702;52.982;6.658;2023-07-13T07:59:19;19.30;99.90
58865;DHT22;45702;52.982;6.658;2023-07-13T08:01:45;19.20;99.90
58865;DHT22;45702;52.982;6.658;2023-07-13T08:04:13;19.00;99.90
58865;DHT22;45702;52.982;6.658;2023-07-13T08:06:39;18.80;99.90
58865;DHT22;45702;52.982;6.658;2023-07-13T08:09:05;18.70;99.90
58865;DHT22;45702;52.982;6.658;2023-07-13T08:11:31;18.60;99.90
58865;DHT22;45702;52.982;6.658;2023-07-13T08:13:57;18.60;99.90
58865;DHT22;45702;52.982;6.658;2023-07-13T08:16:23;18.60;99.90
58865;DHT22;45702;52.982;6.658;2023-07-13T08:18:49;18.70;99.90
58865;DHT22;45702;52.982;6.658;2023-07-13T08:21:15;18.70;99.90
58865;DHT22;45702;52.982;6.658;2023-07-13T08:23:41;18.70;99.90
58865;DHT22;45702;52.982;6.658;2023-07-13T08:26:08;18.70;99.90
58865;DHT22;45702;52.982;6.658;2023-07-13T08:28:34;18.60;99.90
58865;DHT22;45702;52.982;6.658;2023-07-13T08:31:03;18.60;99.90
58865;DHT22;45702;52.982;6.658;2023-07-13T08:33:30;18.60;99.90
58865;DHT22;45702;52.982;6.658;2023-07-13T08:35:56;18.60;99.90
58865;DHT22;45702;52.982;6.658;2023-07-13T08:38:22;18.50;99.90
58865;DHT22;45702;52.982;6.658;2023-07-13T08:40:53;18.50;99.90
58865;DHT22;45702;52.982;6.658;2023-07-13T08:43:26;18.50;99.90
58865;DHT22;45702;52.982;6.658;2023-07-13T08:46:02;18.50;99.90
58865;DHT22;45702;52.982;6.658;2023-07-13T08:48:38;18.40;99.90
58865;DHT22;45702;52.982;6.658;2023-07-13T08:51:32;18.40;99.90
58865;DHT22;45702;52.982;6.658;2023-07-13T08:54:02;18.30;99.90
58865;DHT22;45702;52.982;6.658;2023-07-13T08:56:30;18.30;99.90
58865;DHT22;45702;52.982;6.658;2023-07-13T08:58:59;18.30;99.90
58865;DHT22;45702;52.982;6.658;2023-07-13T09:04:47;18.20;99.90
58865;DHT22;45702;52.982;6.658;2023-07-13T09:10:22;18.10;99.90
58865;DHT22;45702;52.982;6.658;2023-07-13T09:13:15;18.10;99.90
58865;DHT22;45702;52.982;6.658;2023-07-13T09:15:45;18.10;99.90
58865;DHT22;45702;52.982;6.658;2023-07-13T09:23:27;18.10;99.90
58865;DHT22;45702;52.982;6.658;2023-07-13T09:26:15;18.10;99.90
58865;DHT22;45702;52.982;6.658;2023-07-13T09:28:45;18.00;99.90
58865;DHT22;45702;52.982;6.658;2023-07-13T09:31:20;18.00;99.90
58865;DHT22;45702;52.982;6.658;2023-07-13T09:33:49;18.00;99.90
58865;DHT22;45702;52.982;6.658;2023-07-13T09:36:25;18.00;99.90
58865;DHT22;45702;52.982;6.658;2023-07-13T09:41:39;17.90;99.90
58865;DHT22;45702;52.982;6.658;2023-07-13T09:44:15;18.00;99.90
58865;DHT22;45702;52.982;6.658;2023-07-13T09:46:47;18.10;99.90
58865;DHT22;45702;52.982;6.658;2023-07-13T09:49:17;18.20;99.90
58865;DHT22;45702;52.982;6.658;2023-07-13T09:51:44;18.20;99.90
58865;DHT22;45702;52.982;6.658;2023-07-13T09:54:25;18.40;99.90
58865;DHT22;45702;52.982;6.658;2023-07-13T09:56:55;18.50;99.90
58865;DHT22;45702;52.982;6.658;2023-07-13T09:59:23;18.70;99.90
58865;DHT22;45702;52.982;6.658;2023-07-13T10:01:50;18.90;99.90
58865;DHT22;45702;52.982;6.658;2023-07-13T10:04:32;19.00;99.90
58865;DHT22;45702;52.982;6.658;2023-07-13T10:07:11;19.20;99.90
58865;DHT22;45702;52.982;6.658;2023-07-13T10:09:39;19.30;99.90
58865;DHT22;45702;52.982;6.658;2023-07-13T10:12:16;19.40;99.20
58865;DHT22;45702;52.982;6.658;2023-07-13T10:14:43;19.40;99.20
58865;DHT22;45702;52.982;6.658;2023-07-13T10:17:12;19.40;99.90
58865;DHT22;45702;52.982;6.658;2023-07-13T10:19:41;19.60;99.30
58865;DHT22;45702;52.982;6.658;2023-07-13T10:22:24;19.70;99.70
58865;DHT22;45702;52.982;6.658;2023-07-13T10:24:53;19.90;99.00
58865;DHT22;45702;52.982;6.658;2023-07-13T10:27:33;20.10;99.50
58865;DHT22;45702;52.982;6.658;2023-07-13T10:30:13;20.30;99.70
58865;DHT22;45702;52.982;6.658;2023-07-13T10:32:39;20.50;98.60
58865;DHT22;45702;52.982;6.658;2023-07-13T10:35:08;20.70;95.80
58865;DHT22;45702;52.982;6.658;2023-07-13T10:37:52;20.70;95.00
58865;DHT22;45702;52.982;6.658;2023-07-13T10:40:24;20.70;94.10
58865;DHT22;45702;52.982;6.658;2023-07-13T10:42:53;20.60;93.60
58865;DHT22;45702;52.982;6.658;2023-07-13T10:45:22;20.50;94.90
58865;DHT22;45702;52.982;6.658;2023-07-13T10:47:50;20.40;95.30
58865;DHT22;45702;52.982;6.658;2023-07-13T10:50:26;20.30;97.10
58865;DHT22;45702;52.982;6.658;2023-07-13T10:53:02;20.10;99.50
58865;DHT22;45702;52.982;6.658;2023-07-13T10:58:19;19.50;99.90
58865;DHT22;45702;52.982;6.658;2023-07-13T11:03:58;19.20;99.90
58865;DHT22;45702;52.982;6.658;2023-07-13T11:06:31;19.00;99.90
58865;DHT22;45702;52.982;6.658;2023-07-13T11:11:44;18.70;99.90
58865;DHT22;45702;52.982;6.658;2023-07-13T11:16:57;18.60;99.90
58865;DHT22;45702;52.982;6.658;2023-07-13T11:24:56;18.40;99.90
58865;DHT22;45702;52.982;6.658;2023-07-13T11:27:25;18.50;99.90
58865;DHT22;45702;52.982;6.658;2023-07-13T11:29:52;18.50;99.90
58865;DHT22;45702;52.982;6.658;2023-07-13T11:32:32;18.40;99.90
58865;DHT22;45702;52.982;6.658;2023-07-13T11:34:57;18.40;99.90
58865;DHT22;45702;52.982;6.658;2023-07-13T11:37:24;18.40;99.90
58865;DHT22;45702;52.982;6.658;2023-07-13T11:39:51;18.60;99.90
58865;DHT22;45702;52.982;6.658;2023-07-13T11:42:20;18.90;99.90
58865;DHT22;45702;52.982;6.658;2023-07-13T11:44:51;19.10;99.90
58865;DHT22;45702;52.982;6.658;2023-07-13T11:47:18;19.30;99.90
58865;DHT22;45702;52.982;6.658;2023-07-13T11:49:52;19.40;99.90
58865;DHT22;45702;52.982;6.658;2023-07-13T11:52:25;19.60;99.90
58865;DHT22;45702;52.982;6.658;2023-07-13T11:54:55;19.80;99.90
58865;DHT22;45702;52.982;6.658;2023-07-13T11:57:37;20.00;99.90
58865;DHT22;45702;52.982;6.658;2023-07-13T12:00:12;20.30;99.90
58865;DHT22;45702;52.982;6.658;2023-07-13T12:02:46;20.50;99.90
58865;DHT22;45702;52.982;6.658;2023-07-13T12:05:16;20.70;99.90
58865;DHT22;45702;52.982;6.658;2023-07-13T12:07:46;20.80;97.20
58865;DHT22;45702;52.982;6.658;2023-07-13T12:12:58;20.90;92.30
58865;DHT22;45702;52.982;6.658;2023-07-13T12:15:39;20.90;90.30
58865;DHT22;45702;52.982;6.658;2023-07-13T12:18:18;21.10;90.50
58865;DHT22;45702;52.982;6.658;2023-07-13T12:20:45;21.10;90.80
58865;DHT22;45702;52.982;6.658;2023-07-13T12:23:29;21.20;89.00
58865;DHT22;45702;52.982;6.658;2023-07-13T12:25:58;21.20;82.20
58865;DHT22;45702;52.982;6.658;2023-07-13T12:31:01;21.10;83.90
58865;DHT22;45702;52.982;6.658;2023-07-13T12:33:31;21.00;84.40
58865;DHT22;45702;52.982;6.658;2023-07-13T12:36:01;20.90;83.40
58865;DHT22;45702;52.982;6.658;2023-07-13T12:38:29;21.00;83.30
58865;DHT22;45702;52.982;6.658;2023-07-13T12:40:55;21.00;84.30
58865;DHT22;45702;52.982;6.658;2023-07-13T12:43:22;21.20;85.00
58865;DHT22;45702;52.982;6.658;2023-07-13T12:46:00;21.30;79.00
58865;DHT22;45702;52.982;6.658;2023-07-13T12:48:26;21.30;77.80
58865;DHT22;45702;52.982;6.658;2023-07-13T12:50:54;21.20;79.70
58865;DHT22;45702;52.982;6.658;2023-07-13T12:53:28;21.10;80.90
58865;DHT22;45702;52.982;6.658;2023-07-13T12:55:59;21.20;81.30
58865;DHT22;45702;52.982;6.658;2023-07-13T12:58:36;21.30;82.40
58865;DHT22;45702;52.982;6.658;2023-07-13T13:01:02;21.30;76.50
58865;DHT22;45702;52.982;6.658;2023-07-13T13:03:35;21.40;79.10
58865;DHT22;45702;52.982;6.658;2023-07-13T13:08:48;21.50;72.60
58865;DHT22;45702;52.982;6.658;2023-07-13T13:11:21;21.50;71.40
58865;DHT22;45702;52.982;6.658;2023-07-13T13:13:49;21.40;72.80
58865;DHT22;45702;52.982;6.658;2023-07-13T13:18:54;21.80;73.60
58865;DHT22;45702;52.982;6.658;2023-07-13T13:21:22;22.10;69.90
58865;DHT22;45702;52.982;6.658;2023-07-13T13:23:48;22.20;69.30
58865;DHT22;45702;52.982;6.658;2023-07-13T13:26:15;22.40;70.90
58865;DHT22;45702;52.982;6.658;2023-07-13T13:28:42;22.40;71.50
58865;DHT22;45702;52.982;6.658;2023-07-13T13:31:10;22.40;71.30
58865;DHT22;45702;52.982;6.658;2023-07-13T13:33:38;22.30;71.70
58865;DHT22;45702;52.982;6.658;2023-07-13T13:36:17;22.40;71.40
58865;DHT22;45702;52.982;6.658;2023-07-13T13:38:43;22.60;72.30
58865;DHT22;45702;52.982;6.658;2023-07-13T13:41:11;23.00;68.40
58865;DHT22;45702;52.982;6.658;2023-07-13T13:43:39;23.40;85.80
58865;DHT22;45702;52.982;6.658;2023-07-13T13:46:13;23.60;64.10
58865;DHT22;45702;52.982;6.658;2023-07-13T13:48:40;23.70;62.30
58865;DHT22;45702;52.982;6.658;2023-07-13T13:51:19;23.90;66.40
58865;DHT22;45702;52.982;6.658;2023-07-13T13:53:46;23.80;75.50
58865;DHT22;45702;52.982;6.658;2023-07-13T13:56:13;24.00;64.30
58865;DHT22;45702;52.982;6.658;2023-07-13T13:58:40;24.20;62.80
58865;DHT22;45702;52.982;6.658;2023-07-13T14:01:21;24.40;62.50
58865;DHT22;45702;52.982;6.658;2023-07-13T14:03:48;24.40;60.70
58865;DHT22;45702;52.982;6.658;2023-07-13T14:06:16;24.00;59.90
58865;DHT22;45702;52.982;6.658;2023-07-13T14:08:43;23.70;62.30
58865;DHT22;45702;52.982;6.658;2023-07-13T14:11:17;23.70;62.60
58865;DHT22;45702;52.982;6.658;2023-07-13T14:13:55;23.60;64.20
58865;DHT22;45702;52.982;6.658;2023-07-13T14:16:23;23.50;59.90
58865;DHT22;45702;52.982;6.658;2023-07-13T14:18:53;23.50;61.90
58865;DHT22;45702;52.982;6.658;2023-07-13T14:21:22;23.50;61.20
58865;DHT22;45702;52.982;6.658;2023-07-13T14:23:48;23.30;60.80
58865;DHT22;45702;52.982;6.658;2023-07-13T14:26:19;23.10;61.80
58865;DHT22;45702;52.982;6.658;2023-07-13T14:28:48;22.90;63.90
58865;DHT22;45702;52.982;6.658;2023-07-13T14:31:16;22.90;65.70
58865;DHT22;45702;52.982;6.658;2023-07-13T14:33:42;23.00;64.90
58865;DHT22;45702;52.982;6.658;2023-07-13T14:38:49;23.30;65.30
58865;DHT22;45702;52.982;6.658;2023-07-13T14:41:15;23.40;61.00
58865;DHT22;45702;52.982;6.658;2023-07-13T14:43:41;23.50;60.40
58865;DHT22;45702;52.982;6.658;2023-07-13T14:46:18;23.50;60.20
58865;DHT22;45702;52.982;6.658;2023-07-13T14:48:45;23.50;60.40
58865;DHT22;45702;52.982;6.658;2023-07-13T14:51:11;23.70;59.40
58865;DHT22;45702;52.982;6.658;2023-07-13T14:53:36;23.80;60.50
58865;DHT22;45702;52.982;6.658;2023-07-13T14:56:12;23.90;59.30
58865;DHT22;45702;52.982;6.658;2023-07-13T14:58:38;23.80;58.40
58865;DHT22;45702;52.982;6.658;2023-07-13T15:01:12;23.80;58.00
58865;DHT22;45702;52.982;6.658;2023-07-13T15:03:43;23.60;57.50
58865;DHT22;45702;52.982;6.658;2023-07-13T15:06:11;23.40;59.60
58865;DHT22;45702;52.982;6.658;2023-07-13T15:08:37;23.50;59.60
58865;DHT22;45702;52.982;6.658;2023-07-13T15:11:03;23.70;60.10
58865;DHT22;45702;52.982;6.658;2023-07-13T15:13:30;24.10;59.00
58865;DHT22;45702;52.982;6.658;2023-07-13T15:15:56;24.30;58.10
58865;DHT22;45702;52.982;6.658;2023-07-13T15:18:23;24.50;59.50
58865;DHT22;45702;52.982;6.658;2023-07-13T15:20:51;24.20;59.90
58865;DHT22;45702;52.982;6.658;2023-07-13T15:23:21;24.00;60.70
58865;DHT22;45702;52.982;6.658;2023-07-13T15:25:48;23.90;61.00
58865;DHT22;45702;52.982;6.658;2023-07-13T15:28:15;24.20;60.20
58865;DHT22;45702;52.982;6.658;2023-07-13T15:30:48;24.60;60.10
58865;DHT22;45702;52.982;6.658;2023-07-13T15:35:43;25.50;59.50
58865;DHT22;45702;52.982;6.658;2023-07-13T15:38:19;26.20;65.00
58865;DHT22;45702;52.982;6.658;2023-07-13T15:40:47;26.70;61.90
58865;DHT22;45702;52.982;6.658;2023-07-13T15:43:14;27.10;59.30
58865;DHT22;45702;52.982;6.658;2023-07-13T15:45:41;27.10;59.20
58865;DHT22;45702;52.982;6.658;2023-07-13T15:48:26;27.10;59.20
58865;DHT22;45702;52.982;6.658;2023-07-13T15:51:02;27.20;58.20
58865;DHT22;45702;52.982;6.658;2023-07-13T15:53:35;27.40;57.90
58865;DHT22;45702;52.982;6.658;2023-07-13T15:56:18;27.60;57.60
58865;DHT22;45702;52.982;6.658;2023-07-13T15:58:45;27.60;56.70
58865;DHT22;45702;52.982;6.658;2023-07-13T16:01:12;27.90;57.50
58865;DHT22;45702;52.982;6.658;2023-07-13T16:03:38;28.10;56.30
58865;DHT22;45702;52.982;6.658;2023-07-13T16:06:12;28.40;57.00
58865;DHT22;45702;52.982;6.658;2023-07-13T16:08:39;28.50;57.90
58865;DHT22;45702;52.982;6.658;2023-07-13T16:11:15;28.70;58.70
58865;DHT22;45702;52.982;6.658;2023-07-13T16:13:43;28.70;57.30
58865;DHT22;45702;52.982;6.658;2023-07-13T16:16:11;28.30;59.00
58865;DHT22;45702;52.982;6.658;2023-07-13T16:18:37;28.00;59.00
58865;DHT22;45702;52.982;6.658;2023-07-13T16:21:09;27.60;59.30
58865;DHT22;45702;52.982;6.658;2023-07-13T16:23:37;27.80;60.00
58865;DHT22;45702;52.982;6.658;2023-07-13T16:26:03;28.20;58.30